Terminal Aerodrome Forecast
Issued by NWS

Home | Current Version | Previous Version | Text Only | Print | Product List | Glossary On
Versions: 1 2 3 4 5 6 7 8 9 10 11 12
000
FTUS42 KRAH 252323
TAFINT
TAF
KINT 252323Z 2600/2624 26005KT P6SM BKN250
     FM261800 24004KT P6SM SCT060 PROB30 2621/2624 P6SM TS BKN050CB=

USA.gov is the U.S. government's official web portal to all federal, state and local government web resources and services.